createdAt,value
2022-11-30T00:00:25.303Z,98781.66
2022-11-30T00:03:32.541Z,98784.88
2022-11-30T00:06:45.174Z,98788.69
2022-11-30T00:09:52.553Z,98776.06
2022-11-30T00:12:59.384Z,98770.41
2022-11-30T00:16:07.113Z,98780.59
2022-11-30T00:19:13.240Z,98782.13
2022-11-30T00:22:22.789Z,98787.94
2022-11-30T00:25:29.149Z,98798.38
2022-11-30T00:28:38.585Z,98793.25
2022-11-30T00:31:44.730Z,98791.31
2022-11-30T00:34:51.612Z,98789.06
2022-11-30T00:38:00.586Z,98779.47
2022-11-30T00:41:08.389Z,98785.06
2022-11-30T00:44:14.522Z,98777.91
2022-11-30T00:47:21.522Z,98789.56
2022-11-30T00:50:29.066Z,98789.66
2022-11-30T00:53:39.028Z,98793.03
2022-11-30T00:56:45.164Z,98797.34
2022-11-30T00:59:52.817Z,98790.72
2022-11-30T01:02:59.748Z,98789.94
2022-11-30T01:06:07.131Z,98796.41
2022-11-30T01:09:15.802Z,98799.03
2022-11-30T01:12:22.717Z,98798.25
2022-11-30T01:15:28.911Z,98795.59
2022-11-30T01:18:35.931Z,98800.47
2022-11-30T01:21:42.145Z,98802.66
2022-11-30T01:24:51.796Z,98804.84
2022-11-30T01:27:57.980Z,98803.56
2022-11-30T01:31:07.770Z,98796.47
2022-11-30T01:34:13.927Z,98797.81
2022-11-30T01:37:20.863Z,98800.63
2022-11-30T01:40:29.531Z,98794.25
2022-11-30T01:43:46.490Z,98800.22
2022-11-30T01:47:01.871Z,98805.47
2022-11-30T01:50:16.277Z,98807.56
2022-11-30T01:53:22.843Z,98803.78
2022-11-30T01:56:32.757Z,98801.34
2022-11-30T01:59:40.123Z,98797.34
2022-11-30T02:02:59.836Z,98799.75
2022-11-30T02:06:06.309Z,98802.66
2022-11-30T02:09:14.231Z,98794.94
2022-11-30T02:12:37.803Z,98801.06
2022-11-30T02:16:04.244Z,98800.63
2022-11-30T02:19:57.941Z,98802.06
2022-11-30T02:23:51.177Z,98804.31
2022-11-30T02:27:29.968Z,98805.06
2022-11-30T02:30:50.375Z,98795.50
2022-11-30T02:34:01.085Z,98798.19
2022-11-30T02:37:12.975Z,98793.59
2022-11-30T02:40:23.277Z,98795.69
2022-11-30T02:43:33.933Z,98796.28
2022-11-30T02:47:02.689Z,98798.88
2022-11-30T02:50:18.853Z,98804.09
2022-11-30T02:53:25.176Z,98809.41
2022-11-30T02:56:33.432Z,98804.56
2022-11-30T02:59:39.803Z,98805.81
2022-11-30T03:02:50.878Z,98810.41
2022-11-30T03:05:56.981Z,98816.47
2022-11-30T03:09:03.857Z,98811.66
2022-11-30T03:12:10.352Z,98816.63
2022-11-30T03:15:17.451Z,98820.84
2022-11-30T03:18:26.115Z,98817.47
2022-11-30T03:21:33.156Z,98820.97
2022-11-30T03:24:39.283Z,98825.53
2022-11-30T03:27:46.122Z,98829.66
2022-11-30T03:30:52.494Z,98830.81
2022-11-30T03:34:01.987Z,98831.22
2022-11-30T03:37:07.997Z,98831.59
2022-11-30T03:40:16.004Z,98831.25
2022-11-30T03:43:22.016Z,98832.31
2022-11-30T03:46:29.201Z,98838.09
2022-11-30T03:49:38.065Z,98837.63
2022-11-30T03:52:44.999Z,98838.09
2022-11-30T03:55:57.067Z,98837.16
2022-11-30T03:59:04.050Z,98837.16
2022-11-30T04:02:10.254Z,98839.03
2022-11-30T04:05:22.578Z,98839.56
2022-11-30T04:08:30.318Z,98839.44
2022-11-30T04:11:37.393Z,98836.78
2022-11-30T04:14:43.403Z,98836.88
2022-11-30T04:17:50.525Z,98832.66
2022-11-30T04:21:02.287Z,98828.41
2022-11-30T04:24:11.443Z,98839.44
2022-11-30T04:27:17.579Z,98842.75
2022-11-30T04:30:24.582Z,98838.78
2022-11-30T04:33:31.542Z,98831.44
2022-11-30T04:36:41.167Z,98836.75
2022-11-30T04:39:47.065Z,98847.78
2022-11-30T04:42:54.081Z,98840.78
2022-11-30T04:46:00.078Z,98846.38
2022-11-30T04:49:07.392Z,98858.38
2022-11-30T04:52:16.870Z,98848.16
2022-11-30T04:55:23.816Z,98851.97
2022-11-30T04:58:29.841Z,98849.59
2022-11-30T05:01:36.918Z,98857.41
2022-11-30T05:04:43.209Z,98851.22
2022-11-30T05:08:00.041Z,98868.81
2022-11-30T05:11:06.865Z,98860.06
2022-11-30T05:14:14.002Z,98877.38
2022-11-30T05:17:20.080Z,98866.59
2022-11-30T05:20:26.999Z,98869.56
2022-11-30T05:23:35.603Z,98870.06
2022-11-30T05:26:43.004Z,98879.41
2022-11-30T05:29:49.079Z,98874.72
2022-11-30T05:32:56.750Z,98877.03
2022-11-30T05:36:08.820Z,98870.53
2022-11-30T05:39:20.110Z,98883.59
2022-11-30T05:42:26.143Z,98878.88
2022-11-30T05:45:33.815Z,98877.38
2022-11-30T05:48:40.886Z,98875.56
2022-11-30T05:51:47.884Z,98872.81
2022-11-30T05:54:56.502Z,98888.00
2022-11-30T05:58:04.140Z,98883.22
2022-11-30T06:01:11.857Z,98883.63
2022-11-30T06:04:18.694Z,98867.63
2022-11-30T06:07:24.742Z,98885.06
2022-11-30T06:10:34.244Z,98879.81
2022-11-30T06:13:41.953Z,98885.97
2022-11-30T06:16:48.936Z,98889.34
2022-11-30T06:19:55.113Z,98887.34
2022-11-30T06:23:02.078Z,98882.78
2022-11-30T06:26:14.332Z,98885.47
2022-11-30T06:29:21.219Z,98881.09
2022-11-30T06:32:27.317Z,98885.16
2022-11-30T06:35:34.157Z,98894.25
2022-11-30T06:38:40.869Z,98890.03
2022-11-30T06:41:54.448Z,98890.28
2022-11-30T06:45:01.486Z,98897.34
2022-11-30T06:48:09.074Z,98901.84
2022-11-30T06:51:15.330Z,98906.38
2022-11-30T06:54:22.136Z,98913.47
2022-11-30T06:57:33.281Z,98914.47
2022-11-30T07:00:41.332Z,98907.56
2022-11-30T07:03:47.445Z,98917.41
2022-11-30T07:06:54.319Z,98916.22
2022-11-30T07:10:00.770Z,98912.59
2022-11-30T07:13:13.977Z,98913.19
2022-11-30T07:16:20.186Z,98914.13
2022-11-30T07:19:27.445Z,98913.19
2022-11-30T07:22:33.686Z,98912.72
2022-11-30T07:25:52.846Z,98925.34
2022-11-30T07:29:01.586Z,98915.91
2022-11-30T07:32:08.719Z,98920.78
2022-11-30T07:35:14.921Z,98915.41
2022-11-30T07:38:22.241Z,98907.81
2022-11-30T07:41:29.198Z,98914.56
2022-11-30T07:44:38.761Z,98910.88
2022-11-30T07:47:44.762Z,98911.09
2022-11-30T07:50:52.807Z,98912.72
2022-11-30T07:54:00.927Z,98908.72
2022-11-30T07:57:08.014Z,98904.78
2022-11-30T08:00:17.957Z,98910.69
2022-11-30T08:03:24.954Z,98917.84
2022-11-30T08:06:34.356Z,98916.41
2022-11-30T08:09:41.171Z,98910.50
2022-11-30T08:12:47.244Z,98907.56
2022-11-30T08:15:57.462Z,98911.59
2022-11-30T08:19:03.574Z,98911.19
2022-11-30T08:22:10.430Z,98898.66
2022-11-30T08:25:16.825Z,98903.69
2022-11-30T08:28:23.882Z,98909.00
2022-11-30T08:31:36.537Z,98907.50
2022-11-30T08:34:43.578Z,98911.78
2022-11-30T08:37:49.719Z,98914.56
2022-11-30T08:41:01.183Z,98918.59
2022-11-30T08:44:08.228Z,98923.81
2022-11-30T08:47:18.002Z,98922.78
2022-11-30T08:50:24.272Z,98925.84
2022-11-30T08:53:31.310Z,98925.00
2022-11-30T08:56:37.499Z,98932.41
2022-11-30T08:59:44.712Z,98940.25
2022-11-30T09:02:53.665Z,98938.19
2022-11-30T09:06:08.651Z,98931.13
2022-11-30T09:09:14.895Z,98932.84
2022-11-30T09:12:21.794Z,98938.81
2022-11-30T09:15:28.282Z,98936.97
2022-11-30T09:18:38.681Z,98939.41
2022-11-30T09:21:51.133Z,98934.50
2022-11-30T09:24:59.024Z,98946.72
2022-11-30T09:28:10.766Z,98944.31
2022-11-30T09:31:22.437Z,98941.25
2022-11-30T09:34:31.132Z,98935.00
2022-11-30T09:37:39.085Z,98934.00
2022-11-30T09:40:45.800Z,98923.22
2022-11-30T09:44:11.708Z,98932.75
2022-11-30T09:47:40.846Z,98932.31
2022-11-30T09:50:53.688Z,98927.19
2022-11-30T09:54:10.446Z,98931.16
2022-11-30T09:57:30.599Z,98942.78
2022-11-30T10:00:38.276Z,98936.88
2022-11-30T10:03:45.525Z,98944.72
2022-11-30T10:07:13.410Z,98943.72
2022-11-30T10:10:39.679Z,98945.13
2022-11-30T10:14:08.830Z,98937.53
2022-11-30T10:17:37.797Z,98935.94
2022-11-30T10:21:05.771Z,98937.88
2022-11-30T10:24:38.453Z,98937.53
2022-11-30T10:27:54.905Z,98929.56
2022-11-30T10:31:05.604Z,98932.31
2022-11-30T10:34:24.667Z,98921.00
2022-11-30T10:37:40.499Z,98916.81
2022-11-30T10:40:59.384Z,98922.03
2022-11-30T10:44:18.161Z,98908.59
2022-11-30T10:47:31.575Z,98919.44
2022-11-30T10:50:38.814Z,98922.66
2022-11-30T10:53:44.929Z,98914.19
2022-11-30T10:56:54.466Z,98917.72
2022-11-30T11:00:06.058Z,98917.19
2022-11-30T11:03:28.607Z,98924.72
2022-11-30T11:06:37.326Z,98919.38
2022-11-30T11:09:53.805Z,98925.81
2022-11-30T11:13:02.904Z,98922.91
2022-11-30T11:16:14.140Z,98919.97
2022-11-30T11:19:40.951Z,98916.50
2022-11-30T11:22:48.273Z,98911.31
2022-11-30T11:25:57.047Z,98928.03
2022-11-30T11:29:06.729Z,98929.44
2022-11-30T11:32:25.728Z,98928.94
2022-11-30T11:35:44.079Z,98929.81
2022-11-30T11:38:51.899Z,98920.97
2022-11-30T11:42:00.579Z,98920.06
2022-11-30T11:45:20.431Z,98920.59
2022-11-30T11:48:38.126Z,98924.16
2022-11-30T11:51:45.899Z,98926.41
2022-11-30T11:55:00.303Z,98919.56
2022-11-30T11:58:09.035Z,98920.06
2022-11-30T12:01:49.398Z,98929.91
2022-11-30T12:05:02.600Z,98925.31
2022-11-30T12:08:21.568Z,98925.84
2022-11-30T12:11:41.940Z,98928.84
2022-11-30T12:14:48.898Z,98923.94
2022-11-30T12:18:22.278Z,98931.53
2022-11-30T12:21:52.720Z,98924.78
2022-11-30T12:25:24.379Z,98923.50
2022-11-30T12:28:45.266Z,98921.28
2022-11-30T12:32:14.210Z,98926.91
2022-11-30T12:35:43.020Z,98925.25
2022-11-30T12:38:59.007Z,98925.44
2022-11-30T12:42:18.388Z,98920.00
2022-11-30T12:45:38.128Z,98921.28
2022-11-30T12:49:13.341Z,98936.09
2022-11-30T12:52:43.294Z,98923.47
2022-11-30T12:56:07.409Z,98928.53
2022-11-30T12:59:30.956Z,98928.91
2022-11-30T13:03:11.709Z,98923.53
2022-11-30T13:06:26.312Z,98929.88
2022-11-30T13:09:47.749Z,98921.56
2022-11-30T13:12:58.804Z,98913.50
2022-11-30T13:16:12.015Z,98910.78
2022-11-30T13:19:52.715Z,98921.34
2022-11-30T13:23:12.504Z,98930.91
2022-11-30T13:26:34.414Z,98922.78
2022-11-30T13:30:16.237Z,98912.03
2022-11-30T13:33:51.296Z,98912.75
2022-11-30T13:37:09.777Z,98921.41
2022-11-30T13:40:25.084Z,98919.81
2022-11-30T13:43:42.641Z,98928.94
2022-11-30T13:46:53.934Z,98928.56
2022-11-30T13:50:08.571Z,98922.66
2022-11-30T13:53:34.975Z,98923.59
2022-11-30T13:56:47.247Z,98914.84
2022-11-30T13:59:59.483Z,98921.75
2022-11-30T14:03:28.666Z,98915.47
2022-11-30T14:06:52.527Z,98923.44
2022-11-30T14:10:03.833Z,98925.13
2022-11-30T14:13:32.714Z,98929.31
2022-11-30T14:16:46.059Z,98929.78
2022-11-30T14:19:58.434Z,98927.06
2022-11-30T14:23:10.601Z,98927.06
2022-11-30T14:26:21.077Z,98928.56
2022-11-30T14:29:38.177Z,98928.84
2022-11-30T14:32:56.092Z,98929.50
2022-11-30T14:36:05.961Z,98917.66
2022-11-30T14:39:29.107Z,98924.16
2022-11-30T14:42:38.647Z,98919.03
2022-11-30T14:45:44.741Z,98916.16
2022-11-30T14:49:20.533Z,98923.69
2022-11-30T14:52:55.536Z,98923.03
2022-11-30T14:56:16.958Z,98922.00
2022-11-30T14:59:47.319Z,98925.19
2022-11-30T15:02:54.640Z,98925.25
2022-11-30T15:06:08.482Z,98923.59
2022-11-30T15:09:22.877Z,98934.44
2022-11-30T15:12:29.312Z,98941.28
2022-11-30T15:15:41.557Z,98939.88
2022-11-30T15:18:48.064Z,98944.38
2022-11-30T15:22:00.410Z,98939.03
2022-11-30T15:25:06.988Z,98942.47
2022-11-30T15:28:23.577Z,98947.00
2022-11-30T15:31:38.569Z,98947.28
2022-11-30T15:34:56.611Z,98947.75
2022-11-30T15:38:12.137Z,98958.06
2022-11-30T15:41:24.155Z,98962.19
2022-11-30T15:44:45.691Z,98966.34
2022-11-30T15:47:57.219Z,98965.91
2022-11-30T15:51:04.570Z,98972.75
2022-11-30T15:54:15.652Z,98974.53
2022-11-30T15:57:23.678Z,98976.19
2022-11-30T16:00:32.273Z,98985.78
2022-11-30T16:04:04.246Z,98979.75
2022-11-30T16:07:20.957Z,98983.91
2022-11-30T16:10:38.328Z,98989.50
2022-11-30T16:13:45.334Z,98983.84
2022-11-30T16:16:53.555Z,98990.97
2022-11-30T16:20:00.531Z,98991.56
2022-11-30T16:23:06.753Z,98991.84
2022-11-30T16:29:51.825Z,98985.16
2022-11-30T16:32:59.810Z,98994.44
2022-11-30T16:36:12.602Z,98996.63
2022-11-30T16:40:44.725Z,98997.22
2022-11-30T16:47:14.831Z,99001.09
2022-11-30T16:50:23.283Z,98993.69
2022-11-30T16:53:29.291Z,99002.78
2022-11-30T16:56:36.337Z,99002.19
2022-11-30T16:59:42.506Z,99004.75
2022-11-30T17:03:01.138Z,99010.88
2022-11-30T17:06:09.237Z,99002.97
2022-11-30T17:09:19.887Z,99011.56
2022-11-30T17:12:26.246Z,98986.28
2022-11-30T17:15:33.877Z,99000.75
2022-11-30T17:18:42.531Z,98997.16
2022-11-30T17:21:51.156Z,99002.59
2022-11-30T17:24:57.311Z,99006.47
2022-11-30T17:28:04.599Z,99007.34
2022-11-30T17:31:11.579Z,99010.41
2022-11-30T17:34:21.422Z,99009.22
2022-11-30T17:37:27.829Z,99019.25
2022-11-30T17:40:35.225Z,98998.72
2022-11-30T17:43:42.226Z,98997.97
2022-11-30T17:46:49.243Z,99003.03
2022-11-30T17:49:59.645Z,99001.44
2022-11-30T17:53:07.336Z,99002.13
2022-11-30T17:56:19.068Z,99004.81
2022-11-30T17:59:26.841Z,99000.00
2022-11-30T18:02:33.162Z,99008.53
2022-11-30T18:05:44.129Z,99007.34
2022-11-30T18:08:50.719Z,99013.06
2022-11-30T18:11:59.367Z,99012.56
2022-11-30T18:15:05.890Z,99013.00
2022-11-30T18:18:12.906Z,99009.00
2022-11-30T18:21:25.922Z,99008.84
2022-11-30T18:24:33.002Z,99007.75
2022-11-30T18:27:39.379Z,99011.03
2022-11-30T18:30:46.396Z,99010.44
2022-11-30T18:33:56.921Z,99009.63
2022-11-30T18:37:06.772Z,99010.97
2022-11-30T18:40:14.739Z,99019.72
2022-11-30T18:43:22.117Z,99008.09
2022-11-30T18:46:28.664Z,99019.31
2022-11-30T18:49:35.819Z,99021.69
2022-11-30T18:52:45.086Z,99023.94
2022-11-30T18:55:51.947Z,99017.03
2022-11-30T18:59:00.773Z,99022.16
2022-11-30T19:02:07.880Z,99019.84
2022-11-30T19:05:31.913Z,99026.06
2022-11-30T19:08:43.774Z,99024.22
2022-11-30T19:11:50.427Z,99026.31
2022-11-30T19:14:57.456Z,99027.38
2022-11-30T19:18:03.680Z,99031.72
2022-11-30T19:21:12.916Z,99028.09
2022-11-30T19:24:21.837Z,99031.53
2022-11-30T19:27:28.919Z,99033.50
2022-11-30T19:30:35.046Z,99032.59
2022-11-30T19:33:45.501Z,99034.97
2022-11-30T19:36:51.754Z,99036.59
2022-11-30T19:40:01.408Z,99044.84
2022-11-30T19:43:08.524Z,99032.72
2022-11-30T19:46:20.307Z,99035.06
2022-11-30T19:49:26.725Z,99037.16
2022-11-30T19:52:35.036Z,99035.56
2022-11-30T19:55:44.390Z,99030.69
